Time;durP1;ratioP1;P1;durP2;ratioP2;P2;SDS_P1;SDS_P2;PMS_P1;PMS_P2;Temp;Humidity;BMP_temperature;BMP_pressure;BME280_temperature;BME280_humidity;BME280_pressure;Samples;Min_cycle;Max_cycle;Signal;HPM_P1;HPM_P2
2022/11/05 00:10:29;;;;;;;19.60;5.55;;;9.80;99.90;;;;;;5009146;28;20084;-79
2022/11/05 00:18:26;;;;;;;17.63;4.70;;;9.70;99.90;;;;;;5031341;28;20152;-80
2022/11/05 00:20:51;;;;;;;19.10;6.55;;;9.70;99.90;;;;;;5025017;28;20045;-79
2022/11/05 00:26:07;;;;;;;21.92;5.25;;;9.60;99.90;;;;;;5014960;28;20044;-79
2022/11/05 00:28:34;;;;;;;19.98;4.13;;;9.50;99.90;;;;;;5024978;28;20028;-77
2022/11/05 00:31:05;;;;;;;26.98;6.50;;;9.50;99.90;;;;;;5021331;28;20052;-77
2022/11/05 00:33:31;;;;;;;13.65;5.35;;;9.40;99.90;;;;;;5024567;28;20030;-78
2022/11/05 00:35:57;;;;;;;16.17;4.53;;;9.40;99.90;;;;;;5020477;28;20478;-78
2022/11/05 00:38:23;;;;;;;21.10;6.40;;;9.40;99.90;;;;;;5023786;28;20076;-78
2022/11/05 00:40:49;;;;;;;20.80;5.65;;;9.40;99.90;;;;;;5013141;28;20030;-80
2022/11/05 00:46:00;;;;;;;24.45;6.38;;;9.40;99.90;;;;;;5011662;28;20166;-77
2022/11/05 00:51:10;;;;;;;18.27;5.45;;;9.30;99.90;;;;;;5012125;28;20130;-79
2022/11/05 00:53:36;;;;;;;18.38;5.97;;;9.30;99.90;;;;;;5025967;28;20033;-78
2022/11/05 00:56:02;;;;;;;12.93;4.90;;;9.40;99.90;;;;;;5014850;28;20088;-78
2022/11/05 00:58:29;;;;;;;17.80;5.60;;;9.30;99.90;;;;;;5024703;28;20036;-78
2022/11/05 01:00:59;;;;;;;14.25;4.55;;;9.30;99.90;;;;;;5016847;28;20037;-78
2022/11/05 01:03:28;;;;;;;12.93;4.25;;;9.30;99.90;;;;;;5023419;28;20616;-78
2022/11/05 01:06:04;;;;;;;16.60;4.60;;;9.30;99.90;;;;;;5015807;28;20033;-80
2022/11/05 01:08:30;;;;;;;19.30;5.32;;;9.30;99.90;;;;;;5021128;28;20044;-78
2022/11/05 01:10:57;;;;;;;24.25;6.10;;;9.20;99.90;;;;;;5011611;28;20030;-79
2022/11/05 01:13:28;;;;;;;20.95;5.60;;;9.20;99.90;;;;;;5017741;28;20042;-79
2022/11/05 01:15:54;;;;;;;18.77;6.10;;;9.10;99.90;;;;;;5016773;28;20064;-79
2022/11/05 01:18:22;;;;;;;24.95;5.32;;;9.10;99.90;;;;;;5029553;28;20478;-79
2022/11/05 01:20:48;;;;;;;19.83;5.57;;;9.10;99.90;;;;;;5020659;28;20057;-80
2022/11/05 01:23:14;;;;;;;31.92;5.97;;;9.10;99.90;;;;;;5028726;28;20018;-78
2022/11/05 01:25:41;;;;;;;14.52;5.65;;;9.10;99.90;;;;;;5018813;28;20045;-79
2022/11/05 01:28:08;;;;;;;13.73;5.22;;;9.10;99.90;;;;;;5027374;28;20025;-77
2022/11/05 01:30:35;;;;;;;19.77;6.55;;;9.10;99.90;;;;;;5017961;28;20033;-78
2022/11/05 01:33:02;;;;;;;16.33;5.32;;;9.10;99.90;;;;;;5026151;28;20025;-78
2022/11/05 01:35:28;;;;;;;21.70;6.78;;;9.10;99.90;;;;;;5013702;28;20038;-78
2022/11/05 01:37:54;;;;;;;18.25;5.40;;;9.20;99.90;;;;;;5019580;28;20084;-77
2022/11/05 01:40:22;;;;;;;21.25;5.78;;;9.20;99.90;;;;;;5013754;28;20038;-78
2022/11/05 01:42:48;;;;;;;18.75;5.28;;;9.20;99.90;;;;;;5019176;28;20027;-77
2022/11/05 01:45:25;;;;;;;19.30;4.88;;;9.20;99.90;;;;;;5009909;28;20057;-78
2022/11/05 01:48:15;;;;;;;22.88;5.88;;;9.20;99.90;;;;;;5018367;28;20022;-77
2022/11/05 01:50:59;;;;;;;19.60;4.93;;;9.20;99.90;;;;;;5011416;28;20046;-79
2022/11/05 01:53:31;;;;;;;20.23;5.40;;;9.10;99.90;;;;;;5022515;28;20022;-77
2022/11/05 01:56:06;;;;;;;21.00;5.22;;;9.10;99.90;;;;;;5014989;28;20705;-77
2022/11/05 01:58:56;;;;;;;22.40;5.93;;;9.00;99.90;;;;;;5025923;28;20073;-78
2022/11/05 02:01:22;;;;;;;15.88;6.93;;;9.10;99.90;;;;;;5018314;28;20497;-79
2022/11/05 02:03:52;;;;;;;20.17;5.22;;;9.00;99.90;;;;;;5043393;28;20077;-77
2022/11/05 02:06:18;;;;;;;25.05;5.13;;;9.00;99.90;;;;;;5017808;28;20038;-79
2022/11/05 02:09:07;;;;;;;21.52;5.53;;;8.90;99.90;;;;;;5023686;28;20018;-78
2022/11/05 02:11:33;;;;;;;16.08;5.25;;;8.90;99.90;;;;;;5016663;28;20256;-77
2022/11/05 02:13:59;;;;;;;14.13;4.70;;;8.90;99.90;;;;;;5018979;28;20147;-77
2022/11/05 02:16:37;;;;;;;25.35;7.22;;;8.80;99.90;;;;;;5015857;28;20033;-77
2022/11/05 02:19:15;;;;;;;17.55;4.78;;;8.90;99.90;;;;;;5051038;28;20517;-77
2022/11/05 02:22:11;;;;;;;19.05;4.95;;;8.90;99.90;;;;;;5024428;28;20108;-80
2022/11/05 02:25:14;;;;;;;22.83;5.03;;;8.90;99.90;;;;;;5029142;28;20387;-79
2022/11/05 02:28:13;;;;;;;22.20;5.85;;;8.80;99.90;;;;;;5032069;28;20022;-78
2022/11/05 02:30:59;;;;;;;24.98;6.70;;;8.90;99.90;;;;;;5021704;28;20026;-79
2022/11/05 02:33:55;;;;;;;27.25;5.43;;;8.80;99.90;;;;;;5027183;28;20046;-80
2022/11/05 02:36:55;;;;;;;22.92;5.40;;;8.80;99.90;;;;;;5019011;28;20044;-79
2022/11/05 02:39:59;;;;;;;25.03;6.53;;;8.90;99.90;;;;;;5023042;28;20018;-78
2022/11/05 02:42:46;;;;;;;25.33;5.50;;;8.90;99.90;;;;;;5026392;28;20284;-80
2022/11/05 02:45:14;;;;;;;32.35;5.82;;;9.00;99.90;;;;;;5012588;28;20105;-80
2022/11/05 02:48:06;;;;;;;29.98;7.15;;;9.00;99.90;;;;;;5021384;28;20037;-79
2022/11/05 02:50:53;;;;;;;23.92;5.72;;;9.00;99.90;;;;;;5012909;28;20080;-77
2022/11/05 02:53:44;;;;;;;18.23;5.28;;;9.00;99.90;;;;;;5024424;28;20036;-79
2022/11/05 02:56:30;;;;;;;23.48;5.90;;;9.00;99.90;;;;;;5022038;28;20563;-81
2022/11/05 02:58:56;;;;;;;21.13;6.18;;;9.00;99.90;;;;;;5028412;28;20029;-79
2022/11/05 03:01:22;;;;;;;15.48;5.53;;;8.90;99.90;;;;;;5016499;28;20028;-79
2022/11/05 03:03:52;;;;;;;28.35;6.32;;;8.90;99.90;;;;;;5026932;28;20584;-82
2022/11/05 03:06:18;;;;;;;17.10;5.95;;;8.90;99.90;;;;;;5017883;28;20054;-78
2022/11/05 03:08:59;;;;;;;22.48;5.53;;;8.90;99.90;;;;;;5028809;28;20390;-79
2022/11/05 03:11:28;;;;;;;21.73;5.88;;;8.90;99.90;;;;;;5017762;28;20034;-79
2022/11/05 03:14:11;;;;;;;18.60;5.15;;;8.90;99.90;;;;;;5022885;28;20054;-78
2022/11/05 03:17:05;;;;;;;23.40;6.07;;;8.90;99.90;;;;;;5014280;28;20030;-79
2022/11/05 03:19:47;;;;;;;15.02;6.38;;;8.80;99.90;;;;;;5019460;28;20169;-79
2022/11/05 03:22:22;;;;;;;17.55;6.20;;;8.70;99.90;;;;;;5027681;28;20475;-80
2022/11/05 03:24:52;;;;;;;22.83;5.53;;;8.70;99.90;;;;;;5024578;28;20328;-80
2022/11/05 03:27:22;;;;;;;25.70;6.65;;;8.70;99.90;;;;;;5028020;28;20025;-78
2022/11/05 03:29:51;;;;;;;21.50;8.05;;;8.60;99.90;;;;;;5024144;28;20053;-78
2022/11/05 03:32:19;;;;;;;17.90;5.68;;;8.60;99.90;;;;;;5025943;28;20517;-81
2022/11/05 03:35:32;;;;;;;22.25;6.40;;;8.50;99.90;;;;;;5021719;28;20509;-79
2022/11/05 03:38:02;;;;;;;24.92;6.88;;;8.50;99.90;;;;;;5016233;28;20029;-78
2022/11/05 03:40:32;;;;;;;19.52;6.82;;;8.50;99.90;;;;;;5014632;28;20038;-78
2022/11/05 03:43:00;;;;;;;24.52;6.05;;;8.50;99.90;;;;;;5022592;28;20026;-78
2022/11/05 03:45:33;;;;;;;17.08;7.40;;;8.40;99.90;;;;;;5013126;28;20064;-78
2022/11/05 03:48:02;;;;;;;26.25;7.90;;;8.40;99.90;;;;;;5021952;28;20025;-78
2022/11/05 03:50:37;;;;;;;25.20;6.65;;;8.30;99.90;;;;;;5020258;28;20050;-79
2022/11/05 03:53:17;;;;;;;23.92;7.82;;;8.30;99.90;;;;;;5025301;28;20451;-77
2022/11/05 03:56:18;;;;;;;20.35;7.05;;;8.20;99.90;;;;;;5018081;28;20026;-78
2022/11/05 03:58:46;;;;;;;23.20;6.80;;;8.10;99.90;;;;;;5026959;28;20025;-78
2022/11/05 04:01:11;;;;;;;26.88;6.38;;;8.10;99.90;;;;;;5014253;28;20083;-79
2022/11/05 04:03:37;;;;;;;18.95;6.82;;;8.10;99.90;;;;;;5005438;28;20030;-79
2022/11/05 04:14:18;;;;;;;20.40;6.70;;;8.30;99.90;;;;;;5015853;28;20104;-77
2022/11/05 04:25:01;;;;;;;28.17;7.50;;;8.50;99.90;;;;;;5013592;28;20085;-77
2022/11/05 04:27:27;;;;;;;16.42;6.60;;;8.50;99.90;;;;;;5007883;28;20030;-77
2022/11/05 04:32:37;;;;;;;19.95;5.63;;;8.60;99.90;;;;;;5015753;28;20513;-80
2022/11/05 04:35:03;;;;;;;21.67;5.90;;;8.70;99.90;;;;;;5030382;28;20120;-79
2022/11/05 04:37:29;;;;;;;20.83;6.10;;;8.70;99.90;;;;;;5008303;28;20486;-77
2022/11/05 04:39:55;;;;;;;15.57;5.80;;;8.70;99.90;;;;;;5030021;28;20021;-79
2022/11/05 04:42:21;;;;;;;21.65;6.38;;;8.70;99.90;;;;;;5012925;28;20029;-79
2022/11/05 04:44:47;;;;;;;22.80;6.90;;;8.70;99.90;;;;;;5014392;28;20033;-78
2022/11/05 04:47:15;;;;;;;26.50;6.00;;;8.70;99.90;;;;;;5012833;28;20034;-77
2022/11/05 04:49:41;;;;;;;20.60;6.53;;;8.70;99.90;;;;;;5014221;28;20127;-78
2022/11/05 04:52:07;;;;;;;21.17;5.80;;;8.70;99.90;;;;;;5037675;28;20034;-78
2022/11/05 04:54:33;;;;;;;17.23;4.85;;;8.70;99.90;;;;;;5043971;28;20043;-78
2022/11/05 04:56:58;;;;;;;24.27;6.75;;;8.60;99.90;;;;;;5006431;28;20048;-78
2022/11/05 04:59:24;;;;;;;24.20;6.63;;;8.70;99.90;;;;;;5027634;28;20018;-78
2022/11/05 05:01:51;;;;;;;22.45;5.22;;;8.60;99.90;;;;;;5047048;28;20028;-77
2022/11/05 05:04:18;;;;;;;28.33;5.90;;;8.60;99.90;;;;;;5013740;28;20489;-78
2022/11/05 05:06:44;;;;;;;26.55;5.68;;;8.60;99.90;;;;;;5013179;28;20088;-78
2022/11/05 05:09:10;;;;;;;23.98;5.85;;;8.60;99.90;;;;;;5017611;28;20033;-78
2022/11/05 05:11:36;;;;;;;17.48;5.88;;;8.50;99.90;;;;;;5010404;28;20030;-78
2022/11/05 05:14:04;;;;;;;23.08;6.05;;;8.50;99.90;;;;;;5031439;28;20100;-78
2022/11/05 05:16:30;;;;;;;20.95;5.72;;;8.50;99.90;;;;;;5010481;28;20038;-77
2022/11/05 05:18:56;;;;;;;16.17;5.57;;;8.50;99.90;;;;;;5014660;28;20482;-78
2022/11/05 05:21:37;;;;;;;15.23;5.95;;;8.50;99.90;;;;;;5011524;28;20109;-77
2022/11/05 05:24:04;;;;;;;27.20;5.90;;;8.40;99.90;;;;;;5015233;28;20041;-78
2022/11/05 05:26:30;;;;;;;21.27;7.38;;;8.40;99.90;;;;;;5009762;28;20406;-77
2022/11/05 05:28:56;;;;;;;23.83;6.32;;;8.30;99.90;;;;;;5011963;28;20042;-78
2022/11/05 05:31:22;;;;;;;24.70;6.65;;;8.30;99.90;;;;;;5002353;28;20432;-77
2022/11/05 05:33:51;;;;;;;16.85;6.13;;;8.20;99.90;;;;;;5009526;28;20033;-77
2022/11/05 05:36:17;;;;;;;19.83;6.65;;;8.20;99.90;;;;;;5009282;28;20134;-77
2022/11/05 05:38:43;;;;;;;16.15;6.07;;;8.20;99.90;;;;;;5020101;28;20869;-76
2022/11/05 05:41:09;;;;;;;22.63;7.55;;;8.20;99.90;;;;;;5017097;28;20045;-77
2022/11/05 05:43:34;;;;;;;15.40;6.03;;;8.20;99.90;;;;;;5035788;28;20026;-78
2022/11/05 05:46:05;;;;;;;23.23;7.15;;;8.20;99.90;;;;;;5013633;28;20372;-77
2022/11/05 05:48:31;;;;;;;21.90;6.47;;;8.10;99.90;;;;;;5019079;28;20038;-77
2022/11/05 05:51:04;;;;;;;16.88;6.07;;;8.10;99.90;;;;;;5014417;28;20093;-77
2022/11/05 05:53:31;;;;;;;17.25;7.32;;;8.00;99.90;;;;;;5009258;28;20514;-77
2022/11/05 05:55:57;;;;;;;28.50;7.95;;;7.90;99.90;;;;;;5010324;28;20021;-77
2022/11/05 05:58:27;;;;;;;21.73;6.95;;;7.90;99.90;;;;;;5018649;28;20126;-77
2022/11/05 06:00:53;;;;;;;25.27;7.70;;;7.80;99.90;;;;;;5013697;28;20033;-77
2022/11/05 06:03:19;;;;;;;21.00;7.20;;;7.80;99.90;;;;;;5011639;28;20030;-78
2022/11/05 06:05:45;;;;;;;15.63;7.35;;;7.70;99.90;;;;;;5017806;28;20443;-77
2022/11/05 06:08:11;;;;;;;22.73;6.68;;;7.60;99.90;;;;;;5016112;28;20419;-77
2022/11/05 06:10:37;;;;;;;16.35;6.13;;;7.60;99.90;;;;;;5011700;28;20042;-78
2022/11/05 06:13:02;;;;;;;19.50;6.43;;;7.50;99.90;;;;;;5019754;28;20033;-78
2022/11/05 06:15:29;;;;;;;15.30;6.97;;;7.40;99.90;;;;;;5014212;28;20490;-78
2022/11/05 06:17:57;;;;;;;19.25;8.00;;;7.40;99.90;;;;;;5017785;28;20026;-78
2022/11/05 06:20:24;;;;;;;32.13;7.93;;;7.30;99.90;;;;;;5030745;28;20054;-78
2022/11/05 06:22:54;;;;;;;20.90;7.57;;;7.20;99.90;;;;;;5017431;28;20032;-77
2022/11/05 06:25:20;;;;;;;24.10;7.00;;;7.10;99.90;;;;;;5015829;28;20025;-78
2022/11/05 06:27:46;;;;;;;19.23;8.00;;;7.00;99.90;;;;;;5025784;28;20482;-78
2022/11/05 06:30:12;;;;;;;23.45;7.47;;;7.00;99.90;;;;;;5020968;28;20752;-78
2022/11/05 06:32:38;;;;;;;17.65;6.50;;;7.00;99.90;;;;;;5049143;28;20050;-78
2022/11/05 06:35:05;;;;;;;16.02;5.90;;;6.90;99.90;;;;;;5021139;28;20033;-77
2022/11/05 06:37:32;;;;;;;23.27;6.25;;;6.80;99.90;;;;;;5043221;28;20029;-78
2022/11/05 06:39:59;;;;;;;20.52;6.38;;;6.80;99.90;;;;;;5019364;28;20029;-78
2022/11/05 06:42:25;;;;;;;20.98;7.28;;;6.80;99.90;;;;;;5039738;28;20026;-78
2022/11/05 06:44:52;;;;;;;30.67;6.90;;;6.80;99.90;;;;;;5015712;28;20405;-78
2022/11/05 06:47:18;;;;;;;17.88;7.45;;;6.80;99.90;;;;;;5013462;28;20542;-78
2022/11/05 06:49:45;;;;;;;22.15;7.43;;;6.90;99.90;;;;;;5015210;28;20069;-78
2022/11/05 06:52:12;;;;;;;22.95;7.32;;;6.90;99.90;;;;;;5014064;28;20056;-78
2022/11/05 06:54:39;;;;;;;29.38;7.15;;;6.90;99.90;;;;;;5015904;28;20117;-78
2022/11/05 06:57:08;;;;;;;22.35;6.00;;;6.80;99.90;;;;;;5013193;28;20394;-78
2022/11/05 06:59:34;;;;;;;16.13;7.10;;;6.80;99.90;;;;;;5014645;28;20049;-78
2022/11/05 07:02:00;;;;;;;22.52;6.10;;;6.90;99.90;;;;;;5012731;28;20076;-78
2022/11/05 07:04:26;;;;;;;24.65;6.78;;;6.90;99.90;;;;;;5016051;28;20018;-78
2022/11/05 07:06:52;;;;;;;34.38;7.75;;;6.90;99.90;;;;;;5012263;28;20029;-78
2022/11/05 07:09:18;;;;;;;28.25;8.23;;;6.90;99.90;;;;;;5013585;28;20029;-78
2022/11/05 07:11:44;;;;;;;34.65;7.43;;;7.00;99.90;;;;;;5029494;28;20026;-77
2022/11/05 07:14:09;;;;;;;29.23;7.85;;;7.00;99.90;;;;;;5016535;28;20081;-78
2022/11/05 07:16:35;;;;;;;16.77;7.32;;;7.10;99.90;;;;;;5007633;28;20399;-78
2022/11/05 07:19:01;;;;;;;25.85;7.68;;;7.10;99.90;;;;;;5022547;28;20057;-80
2022/11/05 07:21:28;;;;;;;27.83;7.88;;;7.20;99.90;;;;;;5019498;28;20029;-80
2022/11/05 07:23:53;;;;;;;27.77;7.47;;;7.30;99.90;;;;;;5019905;28;20026;-79
2022/11/05 07:26:27;;;;;;;28.60;8.18;;;7.30;99.90;;;;;;5005083;28;20029;-80
2022/11/05 07:28:54;;;;;;;28.95;8.02;;;7.50;99.90;;;;;;5031634;28;20033;-79
2022/11/05 07:31:23;;;;;;;30.70;8.10;;;7.50;99.90;;;;;;5019163;28;20029;-80
2022/11/05 07:33:49;;;;;;;17.13;8.25;;;7.50;99.90;;;;;;5030776;28;20112;-79
2022/11/05 07:36:15;;;;;;;19.65;7.70;;;7.50;99.90;;;;;;5018405;28;20056;-79
2022/11/05 07:38:41;;;;;;;17.10;7.68;;;7.50;99.90;;;;;;5021217;28;20041;-79
2022/11/05 07:41:09;;;;;;;14.20;7.13;;;7.50;99.90;;;;;;5018841;28;20502;-80
2022/11/05 07:43:35;;;;;;;27.52;8.15;;;7.60;99.90;;;;;;5028368;28;20026;-80
2022/11/05 07:46:01;;;;;;;19.77;8.55;;;7.60;99.90;;;;;;5032245;28;20105;-80
2022/11/05 07:48:26;;;;;;;22.48;7.40;;;7.60;99.90;;;;;;5030865;28;20022;-80
2022/11/05 07:50:53;;;;;;;27.02;8.48;;;7.70;99.90;;;;;;5028239;28;20021;-80
2022/11/05 07:53:20;;;;;;;22.52;7.78;;;7.70;99.90;;;;;;5015240;28;20064;-80
2022/11/05 07:55:51;;;;;;;29.00;9.07;;;7.80;99.90;;;;;;5008774;28;20022;-79
2022/11/05 07:58:17;;;;;;;23.17;7.80;;;8.00;99.90;;;;;;5014912;28;20029;-79
2022/11/05 08:00:43;;;;;;;27.98;8.60;;;8.10;99.90;;;;;;5009158;28;20026;-79
2022/11/05 08:03:14;;;;;;;35.42;9.88;;;8.30;99.90;;;;;;5004478;28;20040;-80
2022/11/05 08:05:45;;;;;;;18.15;7.78;;;8.50;99.90;;;;;;5005961;28;20060;-80
2022/11/05 08:08:14;;;;;;;24.75;9.25;;;8.60;99.90;;;;;;5013946;28;20049;-79
2022/11/05 08:10:42;;;;;;;22.92;8.00;;;8.70;99.90;;;;;;4999977;28;20116;-79
2022/11/05 08:13:09;;;;;;;24.48;7.93;;;8.90;99.90;;;;;;5014464;28;20034;-79
2022/11/05 08:15:35;;;;;;;22.00;8.07;;;8.90;99.90;;;;;;5002195;28;20026;-79
2022/11/05 08:18:04;;;;;;;17.23;7.53;;;9.00;99.90;;;;;;5013565;28;20457;-79
2022/11/05 08:20:30;;;;;;;21.58;7.32;;;9.00;99.90;;;;;;5009506;28;20022;-79
2022/11/05 08:22:56;;;;;;;20.88;7.78;;;9.20;99.90;;;;;;5029357;28;20042;-79
2022/11/05 08:25:23;;;;;;;20.20;6.88;;;9.20;99.90;;;;;;5010934;28;20023;-79
2022/11/05 08:27:55;;;;;;;21.05;7.60;;;9.30;99.90;;;;;;5012922;28;20025;-78
2022/11/05 08:30:21;;;;;;;26.75;7.93;;;9.30;99.90;;;;;;5011511;28;20041;-78
2022/11/05 08:32:47;;;;;;;17.48;7.25;;;9.40;99.90;;;;;;5015118;28;20139;-79
2022/11/05 08:35:13;;;;;;;24.10;6.95;;;9.50;99.90;;;;;;5017866;28;20109;-79
2022/11/05 08:37:39;;;;;;;21.50;6.90;;;9.60;99.90;;;;;;5025761;28;20022;-79
2022/11/05 08:40:05;;;;;;;18.85;7.68;;;9.60;99.90;;;;;;5018147;28;20418;-79
2022/11/05 08:42:31;;;;;;;27.85;8.10;;;9.70;99.90;;;;;;5021077;28;20105;-78
2022/11/05 08:44:57;;;;;;;23.65;7.70;;;9.90;99.90;;;;;;5014867;28;20061;-79
2022/11/05 08:47:24;;;;;;;24.83;7.22;;;9.90;99.90;;;;;;5022537;28;20056;-79
2022/11/05 08:49:49;;;;;;;24.30;8.25;;;10.00;99.90;;;;;;5013129;28;20120;-78
2022/11/05 08:52:15;;;;;;;31.90;8.35;;;10.10;99.90;;;;;;5014070;28;20054;-79
2022/11/05 08:54:42;;;;;;;32.08;7.35;;;10.20;99.90;;;;;;5027161;28;20065;-79
2022/11/05 08:57:08;;;;;;;22.55;8.35;;;10.30;99.90;;;;;;5019369;28;20033;-79
2022/11/05 08:59:34;;;;;;;19.33;6.63;;;10.40;99.90;;;;;;5026800;28;20065;-79
2022/11/05 09:02:00;;;;;;;23.75;6.90;;;10.50;99.90;;;;;;5015291;28;20022;-79
2022/11/05 09:04:25;;;;;;;27.98;8.15;;;10.60;99.90;;;;;;5017605;28;20088;-79
2022/11/05 09:06:51;;;;;;;14.55;5.78;;;10.60;99.90;;;;;;5019014;28;20026;-78
2022/11/05 09:09:17;;;;;;;24.45;6.53;;;10.70;99.90;;;;;;5015536;28;20049;-78
2022/11/05 09:11:43;;;;;;;15.35;5.57;;;10.80;99.90;;;;;;5017896;28;20057;-77
2022/11/05 09:14:09;;;;;;;16.58;6.22;;;10.80;99.90;;;;;;5027257;28;20129;-78
2022/11/05 09:16:35;;;;;;;19.90;7.18;;;11.00;99.90;;;;;;5018820;28;20509;-78
2022/11/05 09:19:03;;;;;;;19.35;4.88;;;11.00;99.90;;;;;;5025038;28;20022;-78
2022/11/05 09:21:30;;;;;;;18.60;4.75;;;11.10;99.90;;;;;;5020300;28;20018;-78
2022/11/05 09:23:55;;;;;;;11.73;3.80;;;11.10;99.90;;;;;;5022013;28;20026;-78
2022/11/05 09:26:21;;;;;;;16.02;4.10;;;11.30;99.90;;;;;;5013506;28;20508;-78
2022/11/05 09:28:47;;;;;;;19.70;5.35;;;11.30;99.90;;;;;;5034358;28;20105;-77
2022/11/05 09:31:13;;;;;;;10.10;5.03;;;11.30;99.90;;;;;;5017286;28;20018;-78
2022/11/05 09:33:40;;;;;;;9.38;4.30;;;11.30;99.90;;;;;;5015506;28;20079;-78
2022/11/05 09:36:06;;;;;;;13.63;5.22;;;11.40;99.90;;;;;;5005918;28;20022;-78
2022/11/05 09:38:36;;;;;;;11.75;4.25;;;11.40;99.90;;;;;;5015749;28;20022;-78
2022/11/05 09:41:10;;;;;;;16.13;3.92;;;11.50;99.90;;;;;;5017738;28;20028;-78
2022/11/05 09:43:42;;;;;;;10.52;4.03;;;11.60;99.90;;;;;;5029932;28;20437;-78
2022/11/05 09:46:26;;;;;;;11.25;3.95;;;11.70;99.90;;;;;;5019152;28;20498;-78
2022/11/05 09:48:57;;;;;;;9.02;3.80;;;11.70;99.90;;;;;;5009856;28;20045;-81
2022/11/05 09:51:23;;;;;;;;;;;11.70;99.90;;;;;;5015320;28;20018;-79
2022/11/05 09:53:49;;;;;;;15.55;3.95;;;11.80;99.90;;;;;;5028168;28;20282;-77
2022/11/05 09:56:23;;;;;;;15.35;4.10;;;11.80;99.90;;;;;;5015083;28;20022;-79
2022/11/05 09:58:56;;;;;;;12.75;4.05;;;11.80;99.90;;;;;;5027356;28;20108;-78
2022/11/05 10:01:26;;;;;;;11.88;4.30;;;11.80;99.90;;;;;;5009859;28;20084;-79
2022/11/05 10:03:57;;;;;;;17.67;5.22;;;11.90;99.90;;;;;;5016219;28;20026;-78
2022/11/05 10:06:25;;;;;;;15.25;5.25;;;11.90;99.90;;;;;;5016920;28;20029;-78
2022/11/05 10:09:05;;;;;;;7.60;3.67;;;11.90;99.90;;;;;;5026883;28;20033;-78
2022/11/05 10:11:44;;;;;;;15.23;4.80;;;12.10;99.90;;;;;;5015804;28;20036;-80
2022/11/05 10:14:23;;;;;;;14.18;4.53;;;12.10;99.90;;;;;;5027958;28;20073;-79
2022/11/05 10:16:59;;;;;;;14.65;4.55;;;12.20;99.90;;;;;;5018056;28;20044;-78
2022/11/05 10:19:34;;;;;;;19.83;4.80;;;12.20;99.90;;;;;;5020532;28;20014;-78
2022/11/05 10:22:08;;;;;;;14.00;4.63;;;12.20;99.90;;;;;;5028584;28;20030;-77
2022/11/05 10:24:34;;;;;;;12.77;4.40;;;12.20;99.90;;;;;;5017429;28;20100;-77
2022/11/05 10:27:00;;;;;;;10.70;3.97;;;12.30;99.90;;;;;;5013020;28;20054;-77
2022/11/05 10:29:29;;;;;;;18.13;4.75;;;12.40;99.90;;;;;;5014288;28;20026;-78
2022/11/05 10:31:57;;;;;;;14.60;5.35;;;12.50;99.90;;;;;;5013552;28;20030;-77
2022/11/05 10:34:28;;;;;;;15.70;4.53;;;12.50;99.90;;;;;;5024811;28;20044;-77
2022/11/05 10:36:54;;;;;;;21.40;5.22;;;12.50;99.90;;;;;;5022935;28;20026;-77
2022/11/05 10:39:22;;;;;;;9.90;4.20;;;12.60;99.90;;;;;;5034387;28;20025;-76
2022/11/05 10:41:59;;;;;;;14.82;4.10;;;12.70;99.90;;;;;;5020675;28;20057;-77
2022/11/05 10:44:36;;;;;;;15.30;4.07;;;12.70;99.90;;;;;;5030182;28;20018;-77
2022/11/05 10:47:16;;;;;;;15.98;4.15;;;12.80;99.90;;;;;;5023354;28;20479;-79
2022/11/05 10:50:23;;;;;;;18.63;4.88;;;12.90;99.90;;;;;;5023101;28;20024;-77
2022/11/05 10:53:21;;;;;;;16.27;4.82;;;13.00;99.90;;;;;;5015693;28;20041;-77
2022/11/05 10:55:49;;;;;;;17.23;4.57;;;13.10;99.90;;;;;;5011112;28;20030;-77
2022/11/05 10:58:15;;;;;;;8.40;3.58;;;13.20;99.90;;;;;;5020269;28;20034;-78
2022/11/05 11:01:00;;;;;;;11.30;4.53;;;13.30;99.90;;;;;;5014549;28;20479;-77
2022/11/05 11:03:38;;;;;;;16.63;3.97;;;13.30;99.90;;;;;;5019416;28;20030;-77
2022/11/05 11:06:19;;;;;;;10.65;3.25;;;13.30;99.90;;;;;;5017724;28;20036;-81
2022/11/05 11:08:47;;;;;;;14.20;3.28;;;13.30;99.90;;;;;;5021689;28;20034;-78
2022/11/05 11:11:32;;;;;;;14.48;3.70;;;13.30;99.90;;;;;;5021328;28;20018;-78
2022/11/05 11:14:17;;;;;;;12.00;4.25;;;13.40;99.90;;;;;;5027872;28;20053;-77
2022/11/05 11:16:45;;;;;;;7.43;3.20;;;13.50;99.90;;;;;;5021973;28;20026;-77
2022/11/05 11:19:24;;;;;;;10.10;3.75;;;13.60;99.90;;;;;;5034664;28;20044;-76
2022/11/05 11:22:11;;;;;;;10.77;3.10;;;13.60;99.90;;;;;;5026073;28;20042;-77
2022/11/05 11:24:46;;;;;;;9.43;3.13;;;13.60;99.90;;;;;;5023412;28;20028;-76
2022/11/05 11:27:33;;;;;;;9.32;3.55;;;13.70;99.90;;;;;;5022331;28;20069;-76
2022/11/05 11:30:04;;;;;;;7.45;2.72;;;13.60;99.90;;;;;;5010552;28;20026;-77
2022/11/05 11:32:36;;;;;;;10.93;2.85;;;13.60;99.90;;;;;;5016196;28;20032;-76
2022/11/05 11:35:04;;;;;;;7.07;3.33;;;13.70;99.90;;;;;;5016261;28;20593;-76
2022/11/05 11:37:41;;;;;;;8.35;3.13;;;13.70;99.90;;;;;;5028464;28;20026;-78
2022/11/05 11:40:23;;;;;;;8.32;3.17;;;13.70;99.90;;;;;;5013693;28;20113;-75
2022/11/05 11:42:55;;;;;;;12.27;3.00;;;13.80;99.90;;;;;;5019622;28;20114;-75
2022/11/05 11:45:42;;;;;;;11.07;3.58;;;13.90;99.90;;;;;;5027719;28;20022;-76
2022/11/05 11:48:18;;;;;;;14.10;4.93;;;13.90;99.90;;;;;;5017567;28;20126;-76
2022/11/05 11:50:46;;;;;;;10.48;3.10;;;13.90;99.90;;;;;;5019515;28;20498;-75
2022/11/05 11:53:16;;;;;;;9.50;3.53;;;13.90;99.90;;;;;;5019265;28;20481;-75
2022/11/05 11:56:02;;;;;;;6.85;3.55;;;13.90;99.90;;;;;;5019109;28;20133;-75
2022/11/05 11:59:01;;;;;;;9.73;3.20;;;13.90;99.90;;;;;;5018930;28;20041;-75
2022/11/05 12:01:45;;;;;;;10.27;3.38;;;13.80;99.90;;;;;;5014424;28;20073;-75
2022/11/05 12:04:20;;;;;;;8.82;3.47;;;13.80;99.90;;;;;;5043328;28;20030;-75
2022/11/05 12:07:04;;;;;;;11.20;3.90;;;13.90;99.90;;;;;;5021129;28;20029;-75
2022/11/05 12:09:54;;;;;;;8.95;3.22;;;14.00;99.90;;;;;;5025398;28;20017;-75
2022/11/05 12:12:31;;;;;;;8.00;3.00;;;14.20;99.90;;;;;;5023933;28;20048;-75
2022/11/05 12:15:33;;;;;;;8.45;3.20;;;14.40;99.90;;;;;;5013512;28;20284;-77
2022/11/05 12:18:03;;;;;;;10.48;2.83;;;14.60;99.90;;;;;;5022122;28;20095;-76
2022/11/05 12:20:32;;;;;;;9.27;2.67;;;14.70;99.90;;;;;;5016336;28;20490;-76
2022/11/05 12:23:23;;;;;;;8.27;2.70;;;14.80;99.90;;;;;;5021828;28;20030;-76
2022/11/05 12:26:07;;;;;;;9.15;3.03;;;14.90;99.90;;;;;;5015891;28;20026;-75
2022/11/05 12:29:07;;;;;;;5.65;2.40;;;14.90;99.90;;;;;;5034086;28;20137;-75
2022/11/05 12:31:44;;;;;;;14.82;4.30;;;14.80;99.90;;;;;;5015959;28;20041;-75
2022/11/05 12:34:26;;;;;;;13.02;3.90;;;14.80;99.90;;;;;;5027434;28;20470;-76
2022/11/05 12:37:17;;;;;;;9.32;2.70;;;14.80;99.90;;;;;;5015535;28;20547;-76
2022/11/05 12:40:16;;;;;;;11.85;2.78;;;14.80;99.90;;;;;;5027918;28;20112;-76
2022/11/05 12:42:54;;;;;;;9.15;2.47;;;14.70;99.90;;;;;;5026215;28;20021;-75
2022/11/05 12:45:46;;;;;;;12.55;3.45;;;14.70;99.90;;;;;;5027075;28;20104;-76
2022/11/05 12:48:47;;;;;;;9.55;2.83;;;14.60;99.90;;;;;;5016598;28;20038;-76
2022/11/05 12:51:37;;;;;;;10.88;3.13;;;14.60;99.90;;;;;;5010899;28;20510;-76
2022/11/05 12:54:28;;;;;;;7.47;3.15;;;14.70;99.90;;;;;;5046407;28;20042;-76
2022/11/05 12:56:58;;;;;;;9.60;3.13;;;14.70;99.90;;;;;;5010101;28;20035;-76
2022/11/05 12:59:29;;;;;;;11.65;2.80;;;14.70;99.90;;;;;;5020454;28;20030;-76
2022/11/05 13:02:18;;;;;;;9.65;3.45;;;14.70;99.90;;;;;;5011101;28;20105;-76
2022/11/05 13:05:11;;;;;;;8.00;2.65;;;14.70;99.90;;;;;;5011609;28;20422;-76
2022/11/05 13:07:45;;;;;;;13.82;3.47;;;14.60;99.90;;;;;;5027527;28;20434;-76
2022/11/05 13:10:33;;;;;;;14.18;3.25;;;14.50;99.90;;;;;;5009394;28;20022;-76
2022/11/05 13:13:27;;;;;;;13.30;3.63;;;14.30;99.90;;;;;;5028876;28;20133;-76
2022/11/05 13:16:03;;;;;;;7.47;3.13;;;14.20;99.90;;;;;;5013239;28;20109;-76
2022/11/05 13:18:58;;;;;;;8.73;2.72;;;14.10;99.90;;;;;;5023039;28;20044;-76
2022/11/05 13:21:28;;;;;;;7.13;2.65;;;14.20;99.90;;;;;;5021819;28;20061;-76
2022/11/05 13:24:04;;;;;;;13.27;3.40;;;14.30;99.90;;;;;;5018757;28;20017;-76
2022/11/05 13:26:38;;;;;;;10.93;3.55;;;14.30;99.90;;;;;;5015827;28;20411;-76
2022/11/05 13:29:11;;;;;;;15.30;3.20;;;14.30;99.90;;;;;;5017721;28;20026;-76
2022/11/05 13:31:42;;;;;;;12.07;3.72;;;14.30;99.90;;;;;;5008414;28;20116;-76
2022/11/05 13:34:12;;;;;;;6.22;3.17;;;14.40;99.90;;;;;;5013610;28;20792;-76
2022/11/05 13:39:42;;;;;;;8.55;2.75;;;14.60;99.90;;;;;;5014420;28;20044;-76
2022/11/05 13:42:27;;;;;;;11.02;3.10;;;14.60;99.90;;;;;;5016586;28;20052;-76
2022/11/05 13:45:23;;;;;;;8.07;3.17;;;14.60;99.90;;;;;;5025508;28;20022;-76
2022/11/05 13:48:16;;;;;;;11.10;3.55;;;14.70;99.90;;;;;;5026773;28;20030;-76
2022/11/05 13:51:01;;;;;;;14.25;3.50;;;14.70;99.90;;;;;;5011515;28;20025;-77
2022/11/05 13:53:44;;;;;;;10.18;3.08;;;14.70;99.90;;;;;;5026650;28;20034;-76
2022/11/05 13:56:25;;;;;;;10.68;3.28;;;14.60;99.90;;;;;;5025011;28;20489;-76
2022/11/05 13:59:09;;;;;;;7.05;2.55;;;14.60;99.90;;;;;;5031183;28;20034;-76